sensor_id;sensor_type;location;lat;lon;timestamp;pressure;altitude;pressure_sealevel;temperature;humidity
66381;BME280;53177;52.648;1.214;2023-12-29T00:02:01;99613.66;;;8.66;92.07
66381;BME280;53177;52.648;1.214;2023-12-29T00:04:26;99616.19;;;8.69;90.71
66381;BME280;53177;52.648;1.214;2023-12-29T00:06:52;99606.75;;;8.62;91.96
66381;BME280;53177;52.648;1.214;2023-12-29T00:09:17;99606.81;;;8.61;90.59
66381;BME280;53177;52.648;1.214;2023-12-29T00:11:54;99608.75;;;8.56;91.21
66381;BME280;53177;52.648;1.214;2023-12-29T00:14:20;99605.13;;;8.58;89.79
66381;BME280;53177;52.648;1.214;2023-12-29T00:16:45;99613.00;;;8.60;89.86
66381;BME280;53177;52.648;1.214;2023-12-29T00:19:11;99600.72;;;8.59;89.61
66381;BME280;53177;52.648;1.214;2023-12-29T00:21:37;99610.50;;;8.55;89.86
66381;BME280;53177;52.648;1.214;2023-12-29T00:24:04;99605.44;;;8.49;89.81
66381;BME280;53177;52.648;1.214;2023-12-29T00:26:30;99615.88;;;8.52;88.72
66381;BME280;53177;52.648;1.214;2023-12-29T00:28:55;99610.53;;;8.54;88.31
66381;BME280;53177;52.648;1.214;2023-12-29T00:31:20;99604.38;;;8.55;88.60
66381;BME280;53177;52.648;1.214;2023-12-29T00:33:46;99595.81;;;8.48;89.21
66381;BME280;53177;52.648;1.214;2023-12-29T00:36:15;99599.50;;;8.43;90.48
66381;BME280;53177;52.648;1.214;2023-12-29T00:38:41;99609.19;;;8.42;90.60
66381;BME280;53177;52.648;1.214;2023-12-29T00:41:07;99595.28;;;8.37;90.86
66381;BME280;53177;52.648;1.214;2023-12-29T00:43:32;99602.53;;;8.30;90.90
66381;BME280;53177;52.648;1.214;2023-12-29T00:45:58;99610.47;;;8.29;90.33
66381;BME280;53177;52.648;1.214;2023-12-29T00:48:23;99619.91;;;8.36;89.29
66381;BME280;53177;52.648;1.214;2023-12-29T00:50:48;99610.31;;;8.35;89.25
66381;BME280;53177;52.648;1.214;2023-12-29T00:53:14;99617.50;;;8.28;89.88
66381;BME280;53177;52.648;1.214;2023-12-29T00:55:39;99627.25;;;8.25;90.63
66381;BME280;53177;52.648;1.214;2023-12-29T00:58:04;99618.63;;;8.20;90.73
66381;BME280;53177;52.648;1.214;2023-12-29T01:00:31;99615.94;;;8.21;90.94
66381;BME280;53177;52.648;1.214;2023-12-29T01:02:57;99624.81;;;8.19;91.47
66381;BME280;53177;52.648;1.214;2023-12-29T01:05:22;99619.66;;;8.14;91.45
66381;BME280;53177;52.648;1.214;2023-12-29T01:07:48;99619.63;;;8.16;90.77
66381;BME280;53177;52.648;1.214;2023-12-29T01:10:14;99610.81;;;8.17;89.97
66381;BME280;53177;52.648;1.214;2023-12-29T01:12:40;99613.38;;;8.20;89.99
66381;BME280;53177;52.648;1.214;2023-12-29T01:15:06;99609.00;;;8.19;89.66
66381;BME280;53177;52.648;1.214;2023-12-29T01:17:31;99615.06;;;8.21;88.93
66381;BME280;53177;52.648;1.214;2023-12-29T01:19:57;99610.53;;;8.26;88.29
66381;BME280;53177;52.648;1.214;2023-12-29T01:22:22;99610.56;;;8.24;88.48
66381;BME280;53177;52.648;1.214;2023-12-29T01:24:48;99610.56;;;8.24;87.71
66381;BME280;53177;52.648;1.214;2023-12-29T01:27:13;99605.50;;;8.18;88.52
66381;BME280;53177;52.648;1.214;2023-12-29T01:29:38;99613.31;;;8.21;87.95
66381;BME280;53177;52.648;1.214;2023-12-29T01:32:04;99597.34;;;8.27;87.30
66381;BME280;53177;52.648;1.214;2023-12-29T01:34:33;99615.00;;;8.24;87.40
66381;BME280;53177;52.648;1.214;2023-12-29T01:36:59;99602.91;;;8.17;87.53
66381;BME280;53177;52.648;1.214;2023-12-29T01:39:25;99624.50;;;8.28;86.39
66381;BME280;53177;52.648;1.214;2023-12-29T01:41:50;99606.03;;;8.31;86.52
66381;BME280;53177;52.648;1.214;2023-12-29T01:44:18;99611.41;;;8.26;86.75
66381;BME280;53177;52.648;1.214;2023-12-29T01:46:45;99601.00;;;8.22;86.96
66381;BME280;53177;52.648;1.214;2023-12-29T01:49:14;99610.47;;;8.29;86.88
66381;BME280;53177;52.648;1.214;2023-12-29T01:51:41;99621.06;;;8.26;86.63
66381;BME280;53177;52.648;1.214;2023-12-29T01:54:08;99621.06;;;8.26;86.78
66381;BME280;53177;52.648;1.214;2023-12-29T01:56:33;99610.78;;;8.18;87.54
66381;BME280;53177;52.648;1.214;2023-12-29T01:58:59;99608.09;;;8.20;87.45
66381;BME280;53177;52.648;1.214;2023-12-29T02:01:24;99604.88;;;8.10;88.37
66381;BME280;53177;52.648;1.214;2023-12-29T02:03:49;99628.53;;;8.12;88.96
66381;BME280;53177;52.648;1.214;2023-12-29T02:06:16;99610.09;;;8.12;88.77
66381;BME280;53177;52.648;1.214;2023-12-29T02:08:43;99619.00;;;8.08;88.75
66381;BME280;53177;52.648;1.214;2023-12-29T02:11:08;99616.28;;;8.11;88.40
66381;BME280;53177;52.648;1.214;2023-12-29T02:13:34;99624.41;;;8.03;89.16
66381;BME280;53177;52.648;1.214;2023-12-29T02:16:06;99616.41;;;8.06;88.54
66381;BME280;53177;52.648;1.214;2023-12-29T02:18:34;99612.00;;;8.07;88.69
66381;BME280;53177;52.648;1.214;2023-12-29T02:21:02;99621.72;;;8.05;88.46
66381;BME280;53177;52.648;1.214;2023-12-29T02:23:28;99630.53;;;8.04;89.14
66381;BME280;53177;52.648;1.214;2023-12-29T02:25:55;99625.22;;;8.05;88.67
66381;BME280;53177;52.648;1.214;2023-12-29T02:28:25;99615.59;;;8.04;88.82
66381;BME280;53177;52.648;1.214;2023-12-29T02:30:56;99622.53;;;8.07;88.69
66381;BME280;53177;52.648;1.214;2023-12-29T02:33:26;99621.75;;;8.03;89.66
66381;BME280;53177;52.648;1.214;2023-12-29T02:35:55;99623.41;;;8.07;89.40
66381;BME280;53177;52.648;1.214;2023-12-29T02:38:22;99623.38;;;8.09;89.41
66381;BME280;53177;52.648;1.214;2023-12-29T02:40:48;99610.00;;;8.15;88.60
66381;BME280;53177;52.648;1.214;2023-12-29T02:43:13;99603.78;;;8.17;88.57
66381;BME280;53177;52.648;1.214;2023-12-29T02:45:38;99613.53;;;8.14;89.28
66381;BME280;53177;52.648;1.214;2023-12-29T02:48:04;99590.78;;;8.13;89.92
66381;BME280;53177;52.648;1.214;2023-12-29T02:50:31;99617.09;;;8.13;89.48
66381;BME280;53177;52.648;1.214;2023-12-29T02:52:57;99608.28;;;8.14;89.83
66381;BME280;53177;52.648;1.214;2023-12-29T02:55:22;99601.34;;;8.11;90.55
66381;BME280;53177;52.648;1.214;2023-12-29T02:57:48;99599.50;;;8.13;90.93
66381;BME280;53177;52.648;1.214;2023-12-29T03:00:14;99595.88;;;8.17;91.47
66381;BME280;53177;52.648;1.214;2023-12-29T03:02:40;99594.09;;;8.18;91.90
66381;BME280;53177;52.648;1.214;2023-12-29T03:05:05;99591.38;;;8.21;92.35
66381;BME280;53177;52.648;1.214;2023-12-29T03:07:31;99602.09;;;8.15;93.47
66381;BME280;53177;52.648;1.214;2023-12-29T03:09:57;99601.03;;;8.20;92.92
66381;BME280;53177;52.648;1.214;2023-12-29T03:12:22;99603.63;;;8.22;92.63
66381;BME280;53177;52.648;1.214;2023-12-29T03:14:47;99586.03;;;8.24;92.51
66381;BME280;53177;52.648;1.214;2023-12-29T03:17:13;99603.50;;;8.26;92.00
66381;BME280;53177;52.648;1.214;2023-12-29T03:19:38;99599.75;;;8.35;89.82
66381;BME280;53177;52.648;1.214;2023-12-29T03:22:03;99599.69;;;8.37;90.14
66381;BME280;53177;52.648;1.214;2023-12-29T03:24:29;99591.59;;;8.43;89.85
66381;BME280;53177;52.648;1.214;2023-12-29T03:26:55;99591.50;;;8.46;89.50
66381;BME280;53177;52.648;1.214;2023-12-29T03:29:20;99606.44;;;8.45;89.46
66381;BME280;53177;52.648;1.214;2023-12-29T03:31:46;99582.03;;;8.40;90.42
66381;BME280;53177;52.648;1.214;2023-12-29T03:34:11;99596.09;;;8.39;91.32
66381;BME280;53177;52.648;1.214;2023-12-29T03:36:36;99596.06;;;8.41;92.03
66381;BME280;53177;52.648;1.214;2023-12-29T03:39:02;99596.09;;;8.39;92.80
66381;BME280;53177;52.648;1.214;2023-12-29T03:41:28;99586.59;;;8.35;93.31
66381;BME280;53177;52.648;1.214;2023-12-29T03:43:53;99592.75;;;8.34;93.84
66381;BME280;53177;52.648;1.214;2023-12-29T03:46:22;99584.88;;;8.34;94.45
66381;BME280;53177;52.648;1.214;2023-12-29T03:48:48;99576.97;;;8.34;94.16
66381;BME280;53177;52.648;1.214;2023-12-29T03:51:14;99574.31;;;8.34;94.68
66381;BME280;53177;52.648;1.214;2023-12-29T03:53:40;99568.28;;;8.30;94.58
66381;BME280;53177;52.648;1.214;2023-12-29T03:56:07;99573.59;;;8.29;95.08
66381;BME280;53177;52.648;1.214;2023-12-29T03:58:33;99576.31;;;8.26;95.18
66381;BME280;53177;52.648;1.214;2023-12-29T04:00:59;99570.78;;;8.35;93.95
66381;BME280;53177;52.648;1.214;2023-12-29T04:03:24;99558.66;;;8.28;94.10
66381;BME280;53177;52.648;1.214;2023-12-29T04:05:50;99567.50;;;8.27;94.16
66381;BME280;53177;52.648;1.214;2023-12-29T04:08:15;99571.00;;;8.27;93.83
66381;BME280;53177;52.648;1.214;2023-12-29T04:10:40;99574.47;;;8.28;93.63
66381;BME280;53177;52.648;1.214;2023-12-29T04:13:06;99572.03;;;8.22;93.43
66381;BME280;53177;52.648;1.214;2023-12-29T04:15:31;99577.31;;;8.22;93.28
66381;BME280;53177;52.648;1.214;2023-12-29T04:17:56;99563.34;;;8.20;93.21
66381;BME280;53177;52.648;1.214;2023-12-29T04:20:22;99582.66;;;8.19;92.97
66381;BME280;53177;52.648;1.214;2023-12-29T04:22:49;99584.41;;;8.20;92.42
66381;BME280;53177;52.648;1.214;2023-12-29T04:25:15;99577.41;;;8.19;91.56
66381;BME280;53177;52.648;1.214;2023-12-29T04:27:41;99566.88;;;8.19;91.69
66381;BME280;53177;52.648;1.214;2023-12-29T04:30:07;99561.63;;;8.17;91.12
66381;BME280;53177;52.648;1.214;2023-12-29T04:32:32;99572.19;;;8.17;90.51
66381;BME280;53177;52.648;1.214;2023-12-29T04:34:58;99575.88;;;8.12;90.07
66381;BME280;53177;52.648;1.214;2023-12-29T04:37:23;99582.88;;;8.13;89.45
66381;BME280;53177;52.648;1.214;2023-12-29T04:39:49;99582.03;;;8.11;89.21
66381;BME280;53177;52.648;1.214;2023-12-29T04:42:14;99575.97;;;8.09;88.02
66381;BME280;53177;52.648;1.214;2023-12-29T04:44:39;99575.22;;;8.05;87.86
66381;BME280;53177;52.648;1.214;2023-12-29T04:47:05;99564.63;;;8.07;86.94
66381;BME280;53177;52.648;1.214;2023-12-29T04:49:30;99564.56;;;8.08;85.33
66381;BME280;53177;52.648;1.214;2023-12-29T04:51:56;99569.84;;;8.08;85.46
66381;BME280;53177;52.648;1.214;2023-12-29T04:54:21;99576.03;;;8.06;85.67
66381;BME280;53177;52.648;1.214;2023-12-29T04:56:46;99578.66;;;8.07;85.53
66381;BME280;53177;52.648;1.214;2023-12-29T04:59:12;99583.19;;;8.02;86.47
66381;BME280;53177;52.648;1.214;2023-12-29T05:01:37;99579.88;;;7.96;87.59
66381;BME280;53177;52.648;1.214;2023-12-29T05:04:03;99598.16;;;8.00;87.25
66381;BME280;53177;52.648;1.214;2023-12-29T05:06:28;99594.78;;;7.97;87.72
66381;BME280;53177;52.648;1.214;2023-12-29T05:08:53;99602.00;;;7.90;88.45
66381;BME280;53177;52.648;1.214;2023-12-29T05:11:19;99584.56;;;7.86;88.85
66381;BME280;53177;52.648;1.214;2023-12-29T05:13:44;99586.19;;;7.90;88.82
66381;BME280;53177;52.648;1.214;2023-12-29T05:16:09;99586.25;;;7.89;89.12
66381;BME280;53177;52.648;1.214;2023-12-29T05:18:35;99582.16;;;7.78;90.11
66381;BME280;53177;52.648;1.214;2023-12-29T05:21:00;99584.81;;;7.77;90.47
66381;BME280;53177;52.648;1.214;2023-12-29T05:23:26;99574.25;;;7.78;90.83
66381;BME280;53177;52.648;1.214;2023-12-29T05:25:51;99583.81;;;7.81;90.41
66381;BME280;53177;52.648;1.214;2023-12-29T05:28:17;99586.44;;;7.82;90.51
66381;BME280;53177;52.648;1.214;2023-12-29T05:30:42;99583.94;;;7.78;91.98
66381;BME280;53177;52.648;1.214;2023-12-29T05:33:07;99575.28;;;7.73;92.56
66381;BME280;53177;52.648;1.214;2023-12-29T05:35:33;99586.91;;;7.66;93.22
66381;BME280;53177;52.648;1.214;2023-12-29T05:37:58;99580.00;;;7.62;94.49
66381;BME280;53177;52.648;1.214;2023-12-29T05:40:24;99573.88;;;7.61;95.53
66381;BME280;53177;52.648;1.214;2023-12-29T05:42:50;99589.63;;;7.63;96.18
66381;BME280;53177;52.648;1.214;2023-12-29T05:45:16;99593.31;;;7.57;97.11
66381;BME280;53177;52.648;1.214;2023-12-29T05:47:42;99595.19;;;7.54;97.62
66381;BME280;53177;52.648;1.214;2023-12-29T05:50:08;99590.91;;;7.50;98.78
66381;BME280;53177;52.648;1.214;2023-12-29T05:52:33;99594.38;;;7.50;98.80
66381;BME280;53177;52.648;1.214;2023-12-29T05:54:59;99592.81;;;7.43;99.58
66381;BME280;53177;52.648;1.214;2023-12-29T05:57:24;99586.78;;;7.40;99.99
66381;BME280;53177;52.648;1.214;2023-12-29T05:59:50;99594.69;;;7.40;100.00
66381;BME280;53177;52.648;1.214;2023-12-29T06:02:15;99582.47;;;7.37;100.00
66381;BME280;53177;52.648;1.214;2023-12-29T06:04:40;99579.88;;;7.35;100.00
66381;BME280;53177;52.648;1.214;2023-12-29T06:07:06;99585.22;;;7.32;100.00
66381;BME280;53177;52.648;1.214;2023-12-29T06:09:31;99589.78;;;7.27;100.00
66381;BME280;53177;52.648;1.214;2023-12-29T06:11:56;99599.47;;;7.25;100.00
66381;BME280;53177;52.648;1.214;2023-12-29T06:14:22;99591.47;;;7.28;100.00
66381;BME280;53177;52.648;1.214;2023-12-29T06:16:47;99600.28;;;7.27;100.00
66381;BME280;53177;52.648;1.214;2023-12-29T06:19:13;99585.34;;;7.28;100.00
66381;BME280;53177;52.648;1.214;2023-12-29T06:21:42;99592.44;;;7.26;100.00
66381;BME280;53177;52.648;1.214;2023-12-29T06:24:11;99594.06;;;7.31;100.00
66381;BME280;53177;52.648;1.214;2023-12-29T06:26:37;99595.94;;;7.26;100.00
66381;BME280;53177;52.648;1.214;2023-12-29T06:29:08;99602.09;;;7.25;100.00
66381;BME280;53177;52.648;1.214;2023-12-29T06:31:33;99609.16;;;7.23;100.00
66381;BME280;53177;52.648;1.214;2023-12-29T06:33:59;99603.63;;;7.32;100.00
66381;BME280;53177;52.648;1.214;2023-12-29T06:36:25;99614.13;;;7.34;99.44
66381;BME280;53177;52.648;1.214;2023-12-29T06:38:51;99607.19;;;7.31;99.64
66381;BME280;53177;52.648;1.214;2023-12-29T06:41:17;99606.34;;;7.31;99.98
66381;BME280;53177;52.648;1.214;2023-12-29T06:43:42;99604.78;;;7.24;100.00
66381;BME280;53177;52.648;1.214;2023-12-29T06:46:08;99608.91;;;7.32;98.52
66381;BME280;53177;52.648;1.214;2023-12-29T06:48:34;99615.00;;;7.34;98.44
66381;BME280;53177;52.648;1.214;2023-12-29T06:50:59;99622.06;;;7.32;98.60
66381;BME280;53177;52.648;1.214;2023-12-29T06:53:24;99623.75;;;7.35;97.42
66381;BME280;53177;52.648;1.214;2023-12-29T06:55:50;99623.66;;;7.38;97.04
66381;BME280;53177;52.648;1.214;2023-12-29T06:58:16;99628.06;;;7.38;96.43
66381;BME280;53177;52.648;1.214;2023-12-29T07:00:41;99614.06;;;7.35;97.21
66381;BME280;53177;52.648;1.214;2023-12-29T07:03:06;99625.44;;;7.38;97.11
66381;BME280;53177;52.648;1.214;2023-12-29T07:05:32;99635.16;;;7.34;96.80
66381;BME280;53177;52.648;1.214;2023-12-29T07:07:57;99625.59;;;7.31;97.27
66381;BME280;53177;52.648;1.214;2023-12-29T07:10:23;99627.41;;;7.29;96.96
66381;BME280;53177;52.648;1.214;2023-12-29T07:12:49;99629.13;;;7.30;97.30
66381;BME280;53177;52.648;1.214;2023-12-29T07:15:14;99631.00;;;7.25;98.03
66381;BME280;53177;52.648;1.214;2023-12-29T07:17:40;99627.69;;;7.19;98.96
66381;BME280;53177;52.648;1.214;2023-12-29T07:20:06;99630.41;;;7.16;99.45
66381;BME280;53177;52.648;1.214;2023-12-29T07:22:32;99622.34;;;7.22;99.13
66381;BME280;53177;52.648;1.214;2023-12-29T07:24:58;99634.69;;;7.20;99.72
66381;BME280;53177;52.648;1.214;2023-12-29T07:27:23;99632.25;;;7.12;100.00
66381;BME280;53177;52.648;1.214;2023-12-29T07:29:48;99637.44;;;7.14;99.69
66381;BME280;53177;52.648;1.214;2023-12-29T07:32:14;99651.53;;;7.11;99.00
66381;BME280;53177;52.648;1.214;2023-12-29T07:34:39;99646.06;;;7.20;98.14
66381;BME280;53177;52.648;1.214;2023-12-29T07:37:05;99647.84;;;7.18;98.03
66381;BME280;53177;52.648;1.214;2023-12-29T07:39:30;99640.84;;;7.19;98.07
66381;BME280;53177;52.648;1.214;2023-12-29T07:41:55;99645.13;;;7.21;97.13
66381;BME280;53177;52.648;1.214;2023-12-29T07:44:21;99634.81;;;7.14;97.98
66381;BME280;53177;52.648;1.214;2023-12-29T07:46:46;99652.34;;;7.13;97.83
66381;BME280;53177;52.648;1.214;2023-12-29T07:49:14;99655.03;;;7.12;97.12
66381;BME280;53177;52.648;1.214;2023-12-29T07:51:44;99667.22;;;7.16;96.45
66381;BME280;53177;52.648;1.214;2023-12-29T07:54:13;99663.78;;;7.12;96.30
66381;BME280;53177;52.648;1.214;2023-12-29T07:56:42;99667.28;;;7.13;95.98
66381;BME280;53177;52.648;1.214;2023-12-29T07:59:12;99656.00;;;7.09;96.16
66381;BME280;53177;52.648;1.214;2023-12-29T08:01:44;99656.03;;;7.08;96.14
66381;BME280;53177;52.648;1.214;2023-12-29T08:04:23;99658.72;;;7.05;95.71
66381;BME280;53177;52.648;1.214;2023-12-29T08:06:51;99671.09;;;7.01;95.43
66381;BME280;53177;52.648;1.214;2023-12-29T08:09:28;99657.16;;;6.98;95.23
66381;BME280;53177;52.648;1.214;2023-12-29T08:11:56;99665.94;;;6.97;94.71
66381;BME280;53177;52.648;1.214;2023-12-29T08:14:27;99677.41;;;6.94;93.74
66381;BME280;53177;52.648;1.214;2023-12-29T08:16:59;99672.09;;;6.96;93.65
66381;BME280;53177;52.648;1.214;2023-12-29T08:19:27;99697.47;;;6.98;92.87
66381;BME280;53177;52.648;1.214;2023-12-29T08:21:56;99697.41;;;7.00;92.78
66381;BME280;53177;52.648;1.214;2023-12-29T08:24:22;99705.38;;;6.97;92.86
66381;BME280;53177;52.648;1.214;2023-12-29T08:26:48;99704.56;;;6.93;93.00
66381;BME280;53177;52.648;1.214;2023-12-29T08:29:14;99711.63;;;6.91;92.60
66381;BME280;53177;52.648;1.214;2023-12-29T08:31:44;99721.22;;;6.92;92.03
66381;BME280;53177;52.648;1.214;2023-12-29T08:34:09;99728.31;;;6.90;92.22
66381;BME280;53177;52.648;1.214;2023-12-29T08:36:35;99701.97;;;6.92;92.05
66381;BME280;53177;52.648;1.214;2023-12-29T08:39:01;99720.41;;;6.90;90.81
66381;BME280;53177;52.648;1.214;2023-12-29T08:41:26;99733.66;;;6.85;90.98
66381;BME280;53177;52.648;1.214;2023-12-29T08:43:52;99730.31;;;6.79;91.56
66381;BME280;53177;52.648;1.214;2023-12-29T08:46:17;99730.16;;;6.87;90.16
66381;BME280;53177;52.648;1.214;2023-12-29T08:48:42;99736.97;;;6.94;88.55
66381;BME280;53177;52.648;1.214;2023-12-29T08:51:08;99743.03;;;6.96;88.29
66381;BME280;53177;52.648;1.214;2023-12-29T08:53:33;99743.22;;;6.90;89.34
66381;BME280;53177;52.648;1.214;2023-12-29T08:56:01;99749.31;;;6.90;88.81
66381;BME280;53177;52.648;1.214;2023-12-29T08:58:27;99751.19;;;6.85;89.30
66381;BME280;53177;52.648;1.214;2023-12-29T09:00:53;99762.59;;;6.84;89.29
66381;BME280;53177;52.648;1.214;2023-12-29T09:03:18;99760.72;;;6.89;89.14
66381;BME280;53177;52.648;1.214;2023-12-29T09:05:44;99744.97;;;6.89;88.62
66381;BME280;53177;52.648;1.214;2023-12-29T09:08:09;99756.28;;;6.91;88.92
66381;BME280;53177;52.648;1.214;2023-12-29T09:10:35;99762.28;;;6.98;88.23
66381;BME280;53177;52.648;1.214;2023-12-29T09:13:00;99751.09;;;6.90;88.18
66381;BME280;53177;52.648;1.214;2023-12-29T09:15:26;99764.16;;;6.93;88.20
66381;BME280;53177;52.648;1.214;2023-12-29T09:17:51;99767.56;;;6.96;86.98
66381;BME280;53177;52.648;1.214;2023-12-29T09:20:17;99752.59;;;7.00;87.33
66381;BME280;53177;52.648;1.214;2023-12-29T09:22:43;99761.94;;;7.13;85.47
66381;BME280;53177;52.648;1.214;2023-12-29T09:25:08;99753.19;;;7.12;86.19
66381;BME280;53177;52.648;1.214;2023-12-29T09:27:34;99765.28;;;7.19;85.14
66381;BME280;53177;52.648;1.214;2023-12-29T09:29:59;99769.66;;;7.19;85.66
66381;BME280;53177;52.648;1.214;2023-12-29T09:32:24;99758.25;;;7.20;85.02
66381;BME280;53177;52.648;1.214;2023-12-29T09:34:50;99773.09;;;7.21;85.54
66381;BME280;53177;52.648;1.214;2023-12-29T09:37:15;99764.09;;;7.31;84.08
66381;BME280;53177;52.648;1.214;2023-12-29T09:39:40;99777.19;;;7.32;83.84
66381;BME280;53177;52.648;1.214;2023-12-29T09:42:07;99780.78;;;7.30;84.34
66381;BME280;53177;52.648;1.214;2023-12-29T09:44:36;99772.88;;;7.31;83.97
66381;BME280;53177;52.648;1.214;2023-12-29T09:47:03;99774.63;;;7.31;83.38
66381;BME280;53177;52.648;1.214;2023-12-29T09:49:39;99766.50;;;7.40;82.33
66381;BME280;53177;52.648;1.214;2023-12-29T09:52:09;99773.47;;;7.43;82.49
66381;BME280;53177;52.648;1.214;2023-12-29T09:54:36;99786.38;;;7.50;82.59
66381;BME280;53177;52.648;1.214;2023-12-29T09:57:03;99782.00;;;7.51;81.85
66381;BME280;53177;52.648;1.214;2023-12-29T09:59:29;99798.72;;;7.50;81.42
66381;BME280;53177;52.648;1.214;2023-12-29T10:02:09;99785.59;;;7.47;81.51
66381;BME280;53177;52.648;1.214;2023-12-29T10:04:37;99797.97;;;7.43;81.28
66381;BME280;53177;52.648;1.214;2023-12-29T10:07:04;99805.06;;;7.40;81.63
66381;BME280;53177;52.648;1.214;2023-12-29T10:09:33;99799.91;;;7.37;81.56
66381;BME280;53177;52.648;1.214;2023-12-29T10:11:59;99813.09;;;7.35;81.76
66381;BME280;53177;52.648;1.214;2023-12-29T10:14:49;99810.53;;;7.32;82.01
66381;BME280;53177;52.648;1.214;2023-12-29T10:17:29;99819.25;;;7.34;82.79
66381;BME280;53177;52.648;1.214;2023-12-29T10:25:12;99824.34;;;7.40;83.85
66381;BME280;53177;52.648;1.214;2023-12-29T10:27:38;99814.69;;;7.42;83.84
66381;BME280;53177;52.648;1.214;2023-12-29T10:30:06;99818.09;;;7.46;84.05
66381;BME280;53177;52.648;1.214;2023-12-29T10:32:35;99826.66;;;7.54;82.83
66381;BME280;53177;52.648;1.214;2023-12-29T10:35:10;99829.91;;;7.65;82.76
66381;BME280;53177;52.648;1.214;2023-12-29T10:37:36;99840.25;;;7.71;82.02
66381;BME280;53177;52.648;1.214;2023-12-29T10:40:03;99838.16;;;7.83;80.82
66381;BME280;53177;52.648;1.214;2023-12-29T10:42:29;99838.91;;;7.89;80.97
66381;BME280;53177;52.648;1.214;2023-12-29T10:45:08;99847.59;;;7.92;82.27
66381;BME280;53177;52.648;1.214;2023-12-29T10:47:33;99849.28;;;7.95;81.03
66381;BME280;53177;52.648;1.214;2023-12-29T10:50:02;99855.13;;;8.06;79.65
66381;BME280;53177;52.648;1.214;2023-12-29T10:52:29;99840.75;;;8.19;79.04
66381;BME280;53177;52.648;1.214;2023-12-29T10:55:05;99853.84;;;8.20;78.59
66381;BME280;53177;52.648;1.214;2023-12-29T10:57:31;99841.56;;;8.21;77.42
66381;BME280;53177;52.648;1.214;2023-12-29T10:59:57;99845.34;;;8.11;77.79
66381;BME280;53177;52.648;1.214;2023-12-29T11:02:23;99847.22;;;8.06;77.64
66381;BME280;53177;52.648;1.214;2023-12-29T11:04:48;99850.00;;;8.01;78.85
66381;BME280;53177;52.648;1.214;2023-12-29T11:07:15;99838.63;;;7.99;77.60
66381;BME280;53177;52.648;1.214;2023-12-29T11:09:41;99841.34;;;7.96;77.20
66381;BME280;53177;52.648;1.214;2023-12-29T11:12:07;99837.75;;;7.99;77.22
66381;BME280;53177;52.648;1.214;2023-12-29T11:14:32;99842.13;;;8.00;77.38
66381;BME280;53177;52.648;1.214;2023-12-29T11:16:59;99836.88;;;8.00;76.85
66381;BME280;53177;52.648;1.214;2023-12-29T11:19:26;99843.00;;;8.00;76.41
66381;BME280;53177;52.648;1.214;2023-12-29T11:21:54;99838.69;;;7.98;76.61
66381;BME280;53177;52.648;1.214;2023-12-29T11:24:19;99829.84;;;8.00;75.80
66381;BME280;53177;52.648;1.214;2023-12-29T11:26:45;99824.66;;;7.97;76.23
66381;BME280;53177;52.648;1.214;2023-12-29T11:29:14;99827.22;;;8.00;76.23
66381;BME280;53177;52.648;1.214;2023-12-29T11:31:41;99828.84;;;8.04;75.71
66381;BME280;53177;52.648;1.214;2023-12-29T11:34:12;99824.47;;;8.05;75.99
66381;BME280;53177;52.648;1.214;2023-12-29T11:36:44;99823.63;;;8.03;77.24
66381;BME280;53177;52.648;1.214;2023-12-29T11:39:30;99817.47;;;8.04;77.01
66381;BME280;53177;52.648;1.214;2023-12-29T11:42:13;99822.81;;;8.01;76.57
66381;BME280;53177;52.648;1.214;2023-12-29T11:44:43;99809.59;;;8.02;76.79
66381;BME280;53177;52.648;1.214;2023-12-29T11:47:38;99798.94;;;8.07;75.30
66381;BME280;53177;52.648;1.214;2023-12-29T11:50:04;99802.41;;;8.09;76.11
66381;BME280;53177;52.648;1.214;2023-12-29T11:55:12;99793.09;;;7.96;76.58
66381;BME280;53177;52.648;1.214;2023-12-29T11:57:38;99802.66;;;7.98;75.20
66381;BME280;53177;52.648;1.214;2023-12-29T12:00:06;99822.75;;;8.02;75.81
66381;BME280;53177;52.648;1.214;2023-12-29T12:02:32;99827.22;;;8.00;76.49
66381;BME280;53177;52.648;1.214;2023-12-29T12:04:57;99834.25;;;8.00;75.69
66381;BME280;53177;52.648;1.214;2023-12-29T12:09:51;99841.84;;;8.10;76.33
66381;BME280;53177;52.648;1.214;2023-12-29T12:12:41;99828.84;;;8.04;74.75
66381;BME280;53177;52.648;1.214;2023-12-29T12:17:58;99800.75;;;8.05;75.61
66381;BME280;53177;52.648;1.214;2023-12-29T12:20:26;99807.63;;;8.10;75.69
66381;BME280;53177;52.648;1.214;2023-12-29T12:23:02;99812.94;;;8.09;75.29
66381;BME280;53177;52.648;1.214;2023-12-29T12:25:30;99827.03;;;8.06;76.39
66381;BME280;53177;52.648;1.214;2023-12-29T12:27:56;99824.41;;;8.06;75.46
66381;BME280;53177;52.648;1.214;2023-12-29T12:30:23;99820.84;;;8.09;76.55
66381;BME280;53177;52.648;1.214;2023-12-29T12:32:59;99824.25;;;8.12;76.30
66381;BME280;53177;52.648;1.214;2023-12-29T12:35:25;99824.31;;;8.09;77.86
66381;BME280;53177;52.648;1.214;2023-12-29T12:38:13;99828.47;;;8.18;76.88
66381;BME280;53177;52.648;1.214;2023-12-29T12:40:39;99822.53;;;8.10;76.41
66381;BME280;53177;52.648;1.214;2023-12-29T12:43:05;99812.84;;;8.12;77.40
66381;BME280;53177;52.648;1.214;2023-12-29T12:45:42;99815.41;;;8.15;77.58
66381;BME280;53177;52.648;1.214;2023-12-29T12:50:45;99811.97;;;8.11;76.73
66381;BME280;53177;52.648;1.214;2023-12-29T12:53:12;99816.38;;;8.11;77.88
66381;BME280;53177;52.648;1.214;2023-12-29T12:55:40;99818.94;;;8.14;77.80
66381;BME280;53177;52.648;1.214;2023-12-29T12:58:06;99816.19;;;8.18;78.07
66381;BME280;53177;52.648;1.214;2023-12-29T13:00:36;99814.31;;;8.22;79.46
66381;BME280;53177;52.648;1.214;2023-12-29T13:03:01;99816.16;;;8.20;79.48
66381;BME280;53177;52.648;1.214;2023-12-29T13:05:27;99811.72;;;8.20;80.21
66381;BME280;53177;52.648;1.214;2023-12-29T13:07:55;99804.84;;;8.16;80.56
66381;BME280;53177;52.648;1.214;2023-12-29T13:10:24;99798.78;;;8.13;81.62
66381;BME280;53177;52.648;1.214;2023-12-29T13:12:53;99796.97;;;8.15;82.23
66381;BME280;53177;52.648;1.214;2023-12-29T13:15:19;99795.22;;;8.14;82.17
66381;BME280;53177;52.648;1.214;2023-12-29T13:21:07;99780.97;;;8.21;81.88
66381;BME280;53177;52.648;1.214;2023-12-29T13:23:34;99767.88;;;8.19;82.93
66381;BME280;53177;52.648;1.214;2023-12-29T13:26:04;99784.34;;;8.27;82.83
66381;BME280;53177;52.648;1.214;2023-12-29T13:28:30;99792.19;;;8.29;82.29